Raleigh, Canada
Current Conditions -  °F | °C
As of 12:00 AM on Wednesday 22 Oct 2014 (Local Time) from CYAY Reporting Station
Clear Clear  
Wind Chill: 31°   Ceiling: Unl
Heat Index: 36°   Visibility: 9mi
Dew Point: 34°   Wind: 6mph
Humidity: 93%   Direction: 300°WNW
Pressure: 30.22"   Gusts: NA
Location:  51.55°N, 55.72°W
Report Text: CYAY 220200Z AUTO 30005KT 9SM CLR 02/01 A3022 RMK SLP236
Loading
Personal Weather Stations






























Interactive Weather Map
Tropical Storm Tracking
New forecast layout! Learn more

10-Day Weather Forecast

Advertisements
Track Severe Weather on mobile